ROTAER D-AMDT 26/20 Ver Mudanças

Valença ( SNVB ) / VALENÇA, BA 13 17 47S/038 59 33W
AD PUB Governo do Estado UTC-3 VFR L21 , L26 5 (16)

04 - L12 - ( 1800x30 ASPH 55/F/B/X/T L14 , L15 ) - L12 - 22

SBRE (CINDACTA 3)
CMB- [3] PF TF [3]
MET -

[1] [2]

RMK -

HORÁRIO DE FUNCIONAMENTO
  1. OPS VFR Noturna DLY 2100-0900 O/R (DRG horário comercial) através dos TEL: (75) 98853-0160 ou (75) 98858-7006 com 24 HR de antecedência
REGULAMENTOS PARA TRÁFEGO LOCAL
  1. ACFT TKOF com DEST TMA/CTR-Salvador, será compulsório: - CTC APP-Salvador BFR iniciar TAX/deslocamento; e - Informar hora real TKOF AFT efetuar o FST CTC com APP-Salvador.
COMPL -
  • [1] ERAA (Estação de Radiodifusão Automática de Aeródromo) FREQ 128.000MHZ HR SER H24
  • [2] Usar código de localidade SNVB para acessar METAR/SPECI na REDEMET
  • [3] (MON,TUE,WED,THU,FRI,SAT 1100-1920)
TEMP (0)

Suplementos AIP (0)

NOTAM (0)

Nascer/Por do Sol

08:59

20:21


METAR

031100Z AUTO 29005KT 260V320 9999 ///////// 23/22 Q1016=

TAF

030400Z 0306/0318 09004KT 8000 SCT020 TN20/0308Z TX27/0314Z RMK PCH=


Cartas (0)


Rotas Preferenciais (0)